createdAt,value
2023-05-12T00:00:07.171Z,99.90
2023-05-12T00:02:35.414Z,99.90
2023-05-12T00:07:51.537Z,99.90
2023-05-12T00:10:19.784Z,99.90
2023-05-12T00:12:48.048Z,99.90
2023-05-12T00:15:15.857Z,99.90
2023-05-12T00:17:43.702Z,99.90
2023-05-12T00:20:13.047Z,99.90
2023-05-12T00:25:28.034Z,99.90
2023-05-12T00:27:56.065Z,99.90
2023-05-12T00:30:23.931Z,99.90
2023-05-12T00:32:51.779Z,99.90
2023-05-12T00:35:19.978Z,99.90
2023-05-12T00:37:47.828Z,99.90
2023-05-12T00:40:15.830Z,99.90
2023-05-12T00:42:43.653Z,99.90
2023-05-12T00:45:12.545Z,99.90
2023-05-12T00:47:40.664Z,99.90
2023-05-12T00:50:10.303Z,99.90
2023-05-12T00:52:38.093Z,99.90
2023-05-12T00:55:08.128Z,99.90
2023-05-12T00:57:35.843Z,99.90
2023-05-12T01:00:06.454Z,99.90
2023-05-12T01:02:35.021Z,99.90
2023-05-12T01:05:03.647Z,99.90
2023-05-12T01:07:33.360Z,99.90
2023-05-12T01:10:01.195Z,99.90
2023-05-12T01:12:31.591Z,99.90
2023-05-12T01:14:59.600Z,99.90
2023-05-12T01:17:32.574Z,99.90
2023-05-12T01:20:03.116Z,99.90
2023-05-12T01:22:31.548Z,99.90
2023-05-12T01:25:02.127Z,99.90
2023-05-12T01:27:31.170Z,99.90
2023-05-12T01:30:00.888Z,99.90
2023-05-12T01:32:29.700Z,99.90
2023-05-12T01:34:57.587Z,99.90
2023-05-12T01:37:26.042Z,99.90
2023-05-12T01:39:53.891Z,99.90
2023-05-12T01:42:21.665Z,99.90
2023-05-12T01:44:49.436Z,99.90
2023-05-12T01:47:17.279Z,99.90
2023-05-12T01:49:45.414Z,99.90
2023-05-12T01:52:13.203Z,99.90
2023-05-12T01:54:40.984Z,99.90
2023-05-12T01:57:08.769Z,99.90
2023-05-12T01:59:36.467Z,99.90
2023-05-12T02:02:04.924Z,99.90
2023-05-12T02:04:32.770Z,99.90
2023-05-12T02:07:01.185Z,99.90
2023-05-12T02:09:28.985Z,99.90
2023-05-12T02:11:57.295Z,99.90
2023-05-12T02:14:25.142Z,99.90
2023-05-12T02:16:53.403Z,99.90
2023-05-12T02:19:21.252Z,99.90
2023-05-12T02:21:49.358Z,99.90
2023-05-12T02:24:17.191Z,99.90
2023-05-12T02:26:45.475Z,99.90
2023-05-12T02:29:13.296Z,99.90
2023-05-12T02:31:41.775Z,99.90
2023-05-12T02:34:09.615Z,99.90
2023-05-12T02:36:37.465Z,99.90
2023-05-12T02:39:05.524Z,99.90
2023-05-12T02:41:33.536Z,99.90
2023-05-12T02:44:01.255Z,99.90
2023-05-12T02:46:29.202Z,99.90
2023-05-12T02:48:57.165Z,99.90
2023-05-12T02:51:24.965Z,99.90
2023-05-12T02:53:52.744Z,99.90
2023-05-12T02:56:21.729Z,99.90
2023-05-12T02:58:49.496Z,99.90
2023-05-12T03:01:17.300Z,99.90
2023-05-12T03:03:45.700Z,99.90
2023-05-12T03:06:13.751Z,99.90
2023-05-12T03:08:41.639Z,99.90
2023-05-12T03:11:09.758Z,99.90
2023-05-12T03:13:37.501Z,99.90
2023-05-12T03:16:06.461Z,99.90
2023-05-12T03:18:34.478Z,99.90
2023-05-12T03:21:02.958Z,99.90
2023-05-12T03:23:30.794Z,99.90
2023-05-12T03:25:58.790Z,99.90
2023-05-12T03:28:26.578Z,99.90
2023-05-12T03:33:41.392Z,99.90
2023-05-12T03:36:09.969Z,99.90
2023-05-12T03:38:37.749Z,99.90
2023-05-12T03:41:06.442Z,99.90
2023-05-12T03:43:35.282Z,99.90
2023-05-12T03:46:03.478Z,99.90
2023-05-12T03:48:31.330Z,99.90
2023-05-12T03:50:59.275Z,99.90
2023-05-12T03:53:27.006Z,99.90
2023-05-12T03:55:54.916Z,99.90
2023-05-12T03:58:23.752Z,99.90
2023-05-12T04:00:51.545Z,99.90
2023-05-12T04:03:19.461Z,99.90
2023-05-12T04:05:47.540Z,99.90
2023-05-12T04:08:15.346Z,99.90
2023-05-12T04:13:10.968Z,99.90
2023-05-12T04:15:39.617Z,99.90
2023-05-12T04:18:07.488Z,99.90
2023-05-12T04:20:35.780Z,99.90
2023-05-12T04:23:03.569Z,99.90
2023-05-12T04:25:31.451Z,99.90
2023-05-12T04:27:59.328Z,99.90
2023-05-12T04:30:27.186Z,99.90
2023-05-12T04:32:55.146Z,99.90
2023-05-12T04:35:22.966Z,99.90
2023-05-12T04:37:50.881Z,99.90
2023-05-12T04:40:19.279Z,99.90
2023-05-12T04:42:47.891Z,99.90
2023-05-12T04:45:15.833Z,99.90
2023-05-12T04:47:43.637Z,99.90
2023-05-12T04:50:12.545Z,99.90
2023-05-12T04:52:40.504Z,99.90
2023-05-12T04:55:09.879Z,99.90
2023-05-12T04:57:40.393Z,99.90
2023-05-12T05:00:10.578Z,99.90
2023-05-12T05:02:39.069Z,99.90
2023-05-12T05:05:08.666Z,99.90
2023-05-12T05:07:36.448Z,99.90
2023-05-12T05:10:06.142Z,99.90
2023-05-12T05:12:34.028Z,99.90
2023-05-12T05:15:01.761Z,99.90
2023-05-12T05:17:29.594Z,99.90
2023-05-12T05:19:59.566Z,99.90
2023-05-12T05:22:27.778Z,99.90
2023-05-12T05:24:55.985Z,99.90
2023-05-12T05:27:23.905Z,99.90
2023-05-12T05:29:51.942Z,99.90
2023-05-12T05:32:19.773Z,99.90
2023-05-12T05:34:47.582Z,99.90
2023-05-12T05:37:15.374Z,99.90
2023-05-12T05:42:32.385Z,99.90
2023-05-12T05:45:00.966Z,99.90
2023-05-12T05:47:31.075Z,99.90
2023-05-12T05:50:00.226Z,99.90
2023-05-12T05:52:28.764Z,99.90
2023-05-12T05:54:57.245Z,99.90
2023-05-12T05:57:27.171Z,99.90
2023-05-12T05:59:54.988Z,99.90
2023-05-12T06:02:23.179Z,99.90
2023-05-12T06:04:51.949Z,99.90
2023-05-12T06:07:22.096Z,99.90
2023-05-12T06:09:50.660Z,99.90
2023-05-12T06:12:19.318Z,99.90
2023-05-12T06:14:47.809Z,99.90
2023-05-12T06:17:16.355Z,99.90
2023-05-12T06:22:31.362Z,99.90
2023-05-12T06:24:59.945Z,99.90
2023-05-12T06:27:29.830Z,99.90
2023-05-12T06:29:58.206Z,99.90
2023-05-12T06:32:26.357Z,99.90
2023-05-12T06:34:54.847Z,99.90
2023-05-12T06:37:23.593Z,99.90
2023-05-12T06:39:51.596Z,99.90
2023-05-12T06:42:19.380Z,99.90
2023-05-12T06:44:47.202Z,99.90
2023-05-12T06:47:15.076Z,99.90
2023-05-12T06:49:43.332Z,99.90
2023-05-12T06:52:12.122Z,99.90
2023-05-12T06:54:39.887Z,99.90
2023-05-12T06:57:07.650Z,99.90
2023-05-12T06:59:35.499Z,99.90
2023-05-12T07:02:03.363Z,99.90
2023-05-12T07:04:31.228Z,99.90
2023-05-12T07:06:59.016Z,99.90
2023-05-12T07:09:26.811Z,99.90
2023-05-12T07:11:55.391Z,99.90
2023-05-12T07:14:23.276Z,99.90
2023-05-12T07:16:51.128Z,99.90
2023-05-12T07:19:18.938Z,99.90
2023-05-12T07:21:46.721Z,99.90
2023-05-12T07:24:15.949Z,99.90
2023-05-12T07:26:44.041Z,99.90
2023-05-12T07:29:13.811Z,99.90
2023-05-12T07:31:42.052Z,99.90
2023-05-12T07:34:10.249Z,99.90
2023-05-12T07:36:38.543Z,99.90
2023-05-12T07:39:06.332Z,99.90
2023-05-12T07:41:34.586Z,99.90
2023-05-12T07:44:02.883Z,99.90
2023-05-12T07:46:30.749Z,99.90
2023-05-12T07:48:58.579Z,99.90
2023-05-12T07:51:26.406Z,99.90
2023-05-12T07:53:55.872Z,99.90
2023-05-12T07:56:24.069Z,99.90
2023-05-12T07:58:52.046Z,99.90
2023-05-12T08:01:19.879Z,99.90
2023-05-12T08:03:48.013Z,99.90
2023-05-12T08:06:15.939Z,99.90
2023-05-12T08:08:43.761Z,99.90
2023-05-12T08:11:12.238Z,99.90
2023-05-12T08:13:40.147Z,99.90
2023-05-12T08:16:08.008Z,99.90
2023-05-12T08:18:36.199Z,99.90
2023-05-12T08:21:04.671Z,99.90
2023-05-12T08:23:32.630Z,99.90
2023-05-12T08:26:00.508Z,99.90
2023-05-12T08:28:28.385Z,99.90
2023-05-12T08:30:56.307Z,99.90
2023-05-12T08:33:24.964Z,99.90
2023-05-12T08:35:52.965Z,99.90
2023-05-12T08:38:21.382Z,99.90
2023-05-12T08:43:49.594Z,99.90
2023-05-12T08:46:17.684Z,99.90
2023-05-12T08:48:46.812Z,99.90
2023-05-12T08:51:15.504Z,99.90
2023-05-12T08:58:44.661Z,99.90
2023-05-12T09:01:14.061Z,99.90
2023-05-12T09:03:42.259Z,99.90
2023-05-12T09:06:11.358Z,99.90
2023-05-12T09:08:40.510Z,99.90
2023-05-12T09:14:00.692Z,99.90
2023-05-12T09:16:32.477Z,99.90
2023-05-12T09:19:01.524Z,99.90
2023-05-12T09:21:29.823Z,99.90
2023-05-12T09:23:59.093Z,99.90
2023-05-12T09:26:28.095Z,99.90
2023-05-12T09:29:04.160Z,99.90
2023-05-12T09:31:32.015Z,99.90
2023-05-12T09:34:01.600Z,99.90
2023-05-12T09:36:29.640Z,99.90
2023-05-12T09:39:03.892Z,99.90
2023-05-12T09:41:34.893Z,99.90
2023-05-12T09:44:03.581Z,99.90
2023-05-12T09:46:31.830Z,99.90
2023-05-12T09:49:00.386Z,99.90
2023-05-12T09:51:29.865Z,99.90
2023-05-12T09:53:58.200Z,99.90
2023-05-12T09:56:28.780Z,99.90
2023-05-12T09:58:57.777Z,99.90
2023-05-12T10:01:26.603Z,99.90
2023-05-12T10:03:55.681Z,99.90
2023-05-12T10:06:27.690Z,99.90
2023-05-12T10:09:14.963Z,99.90
2023-05-12T10:11:44.047Z,99.90
2023-05-12T10:14:12.768Z,99.90
2023-05-12T10:16:41.384Z,99.90
2023-05-12T10:19:10.198Z,99.90
2023-05-12T10:21:39.011Z,99.90
2023-05-12T10:24:07.544Z,99.90
2023-05-12T10:26:39.059Z,99.90
2023-05-12T10:29:07.615Z,99.90
2023-05-12T10:31:36.186Z,99.90
2023-05-12T10:34:05.256Z,99.90
2023-05-12T10:36:45.632Z,99.90
2023-05-12T10:39:15.282Z,99.90
2023-05-12T10:41:43.341Z,99.90
2023-05-12T10:44:11.450Z,99.90
2023-05-12T10:46:39.376Z,99.90
2023-05-12T10:49:09.706Z,99.90
2023-05-12T10:51:48.536Z,99.90
2023-05-12T10:54:21.368Z,99.90
2023-05-12T10:56:49.566Z,99.90
2023-05-12T10:59:20.277Z,99.90
2023-05-12T11:02:01.853Z,99.90
2023-05-12T11:07:30.511Z,99.90
2023-05-12T11:10:01.445Z,99.90
2023-05-12T11:12:33.170Z,99.90
2023-05-12T11:15:02.753Z,99.90
2023-05-12T11:17:31.427Z,99.90
2023-05-12T11:20:00.114Z,99.90
2023-05-12T11:22:28.177Z,99.90
2023-05-12T11:24:56.186Z,99.90
2023-05-12T11:27:24.492Z,99.90
2023-05-12T11:30:03.745Z,99.90
2023-05-12T11:32:31.645Z,99.90
2023-05-12T11:35:12.693Z,99.90
2023-05-12T11:37:42.106Z,99.90
2023-05-12T11:40:15.767Z,99.90
2023-05-12T11:42:47.676Z,99.90
2023-05-12T11:45:26.342Z,99.90
2023-05-12T11:48:06.828Z,99.90
2023-05-12T11:50:36.916Z,88.80
2023-05-12T11:53:04.825Z,99.90
2023-05-12T11:58:25.975Z,77.00
2023-05-12T12:00:54.508Z,38.20
2023-05-12T12:03:23.101Z,1.00
2023-05-12T12:06:01.852Z,65.10
2023-05-12T12:08:30.317Z,53.40
2023-05-12T12:10:58.359Z,1.00
2023-05-12T12:13:26.889Z,1.00
2023-05-12T12:15:55.473Z,1.00
2023-05-12T12:18:23.601Z,1.00
2023-05-12T12:20:51.432Z,1.00
2023-05-12T12:23:19.294Z,1.00
2023-05-12T12:25:47.098Z,95.00
2023-05-12T12:28:15.303Z,99.90
2023-05-12T12:30:43.101Z,1.00
2023-05-12T12:33:11.236Z,99.90
2023-05-12T12:35:39.216Z,1.00
2023-05-12T12:38:08.218Z,1.00
2023-05-12T12:40:36.156Z,1.00
2023-05-12T12:43:03.981Z,99.90
2023-05-12T12:45:31.846Z,1.00
2023-05-12T12:48:00.002Z,1.00
2023-05-12T12:50:28.541Z,1.00
2023-05-12T12:52:56.927Z,1.00
2023-05-12T12:55:25.319Z,1.00
2023-05-12T12:57:53.152Z,99.90
2023-05-12T13:00:23.105Z,99.90
2023-05-12T13:02:51.170Z,99.90
2023-05-12T13:05:19.682Z,1.00
2023-05-12T13:07:47.731Z,99.90
2023-05-12T13:10:16.031Z,99.90
2023-05-12T13:12:44.286Z,99.90
2023-05-12T13:15:13.449Z,1.00
2023-05-12T13:17:41.391Z,99.90
2023-05-12T13:20:13.169Z,1.00
2023-05-12T13:22:41.499Z,1.00
2023-05-12T13:25:10.996Z,99.90
2023-05-12T13:27:39.419Z,67.60
2023-05-12T13:30:12.121Z,99.90
2023-05-12T13:32:41.684Z,99.90
2023-05-12T13:35:10.565Z,1.00
2023-05-12T13:37:38.938Z,1.00
2023-05-12T13:42:56.516Z,1.00
2023-05-12T13:45:24.828Z,1.00
2023-05-12T13:47:52.813Z,99.90
2023-05-12T13:50:20.848Z,10.10
2023-05-12T13:52:48.813Z,44.20
2023-05-12T13:55:20.894Z,1.00
2023-05-12T13:57:49.833Z,1.00
2023-05-12T14:03:09.489Z,99.90
2023-05-12T14:05:37.572Z,1.00
2023-05-12T14:08:05.966Z,99.90
2023-05-12T14:10:34.644Z,7.30
2023-05-12T14:13:02.428Z,1.00
2023-05-12T14:15:44.359Z,54.70
2023-05-12T14:18:15.659Z,1.00
2023-05-12T14:20:43.558Z,1.00
2023-05-12T14:23:11.483Z,1.00
2023-05-12T14:25:39.493Z,1.00
2023-05-12T14:28:07.364Z,99.90
2023-05-12T14:30:36.559Z,1.00
2023-05-12T14:33:04.804Z,99.90
2023-05-12T14:35:32.774Z,99.90
2023-05-12T14:38:00.628Z,1.00
2023-05-12T14:40:28.532Z,1.00
2023-05-12T14:42:56.471Z,1.00
2023-05-12T14:45:25.922Z,99.90
2023-05-12T14:47:53.848Z,1.00
2023-05-12T14:50:21.918Z,1.00
2023-05-12T14:52:49.886Z,1.00
2023-05-12T14:55:17.756Z,1.00
2023-05-12T14:57:46.564Z,1.00
2023-05-12T15:00:16.438Z,99.90
2023-05-12T15:02:45.033Z,99.90
2023-05-12T15:05:14.556Z,1.00
2023-05-12T15:07:42.419Z,1.00
2023-05-12T15:10:11.617Z,99.90
2023-05-12T15:12:39.360Z,1.00
2023-05-12T15:15:10.990Z,99.90
2023-05-12T15:17:38.908Z,19.70
2023-05-12T15:20:09.791Z,1.00
2023-05-12T15:22:37.720Z,99.90
2023-05-12T15:25:08.146Z,99.90
2023-05-12T15:27:35.990Z,99.90
2023-05-12T15:30:06.419Z,99.90
2023-05-12T15:32:34.246Z,99.90
2023-05-12T15:35:02.226Z,99.90
2023-05-12T15:37:30.168Z,99.90
2023-05-12T15:39:57.960Z,1.00
2023-05-12T15:42:30.084Z,99.20
2023-05-12T15:45:00.954Z,99.90
2023-05-12T15:47:28.935Z,99.90
2023-05-12T15:49:56.674Z,1.00
2023-05-12T15:52:24.440Z,99.30
2023-05-12T15:54:52.202Z,99.90
2023-05-12T15:57:20.042Z,99.90
2023-05-12T16:02:34.503Z,1.00
2023-05-12T16:05:02.420Z,1.00
2023-05-12T16:07:30.487Z,99.90
2023-05-12T16:09:58.703Z,99.90
2023-05-12T16:12:26.513Z,1.00
2023-05-12T16:14:54.233Z,99.90
2023-05-12T16:17:22.371Z,99.90
2023-05-12T16:19:52.393Z,99.90
2023-05-12T16:22:20.227Z,99.90
2023-05-12T16:24:48.694Z,1.00
2023-05-12T16:27:16.481Z,8.90
2023-05-12T16:29:44.879Z,41.60
2023-05-12T16:32:12.950Z,1.00
2023-05-12T16:34:40.915Z,99.20
2023-05-12T16:37:08.953Z,99.90
2023-05-12T16:39:37.051Z,99.90
2023-05-12T16:42:06.400Z,34.20
2023-05-12T16:44:34.765Z,99.90
2023-05-12T16:47:02.546Z,99.90
2023-05-12T16:49:30.261Z,99.90
2023-05-12T16:51:58.208Z,37.30
2023-05-12T16:57:14.637Z,99.90
2023-05-12T16:59:42.359Z,99.90
2023-05-12T17:02:10.461Z,30.60
2023-05-12T17:04:38.264Z,99.90
2023-05-12T17:07:06.555Z,88.40
2023-05-12T17:09:34.567Z,99.90
2023-05-12T17:12:03.724Z,99.90
2023-05-12T17:14:31.514Z,99.90
2023-05-12T17:16:59.424Z,1.00
2023-05-12T17:19:27.269Z,99.90
2023-05-12T17:21:55.213Z,99.90
2023-05-12T17:24:23.093Z,1.00
2023-05-12T17:26:51.058Z,1.00
2023-05-12T17:29:19.759Z,1.00
2023-05-12T17:31:47.675Z,1.00
2023-05-12T17:34:15.893Z,99.90
2023-05-12T17:36:43.718Z,99.90
2023-05-12T17:39:15.076Z,99.90
2023-05-12T17:41:43.405Z,99.90
2023-05-12T17:47:00.072Z,99.90
2023-05-12T17:49:27.934Z,1.00
2023-05-12T17:51:55.757Z,1.00
2023-05-12T17:54:23.494Z,1.00
2023-05-12T17:56:51.452Z,1.00
2023-05-12T17:59:19.313Z,1.00
2023-05-12T18:01:47.095Z,1.00
2023-05-12T18:04:14.884Z,1.00
2023-05-12T18:06:43.144Z,5.80
2023-05-12T18:09:12.989Z,1.00
2023-05-12T18:11:40.762Z,15.30
2023-05-12T18:14:08.677Z,1.00
2023-05-12T18:16:36.566Z,1.00
2023-05-12T18:19:04.600Z,23.00
2023-05-12T18:21:32.763Z,31.60
2023-05-12T18:24:01.482Z,2.40
2023-05-12T18:26:29.405Z,20.30
2023-05-12T18:28:57.453Z,60.00
2023-05-12T18:31:26.188Z,1.00
2023-05-12T18:33:54.129Z,99.90
2023-05-12T18:36:21.895Z,1.00
2023-05-12T18:38:49.662Z,1.00
2023-05-12T18:41:17.614Z,99.90
2023-05-12T18:43:45.420Z,1.00
2023-05-12T18:46:13.275Z,99.90
2023-05-12T18:48:41.165Z,1.00
2023-05-12T18:51:09.136Z,99.90
2023-05-12T18:53:36.910Z,99.90
2023-05-12T18:56:05.458Z,1.00
2023-05-12T18:58:33.196Z,1.00
2023-05-12T19:01:01.494Z,1.00
2023-05-12T19:03:30.450Z,38.70
2023-05-12T19:05:58.412Z,99.90
2023-05-12T19:08:26.384Z,1.00
2023-05-12T19:10:54.201Z,99.90
2023-05-12T19:13:22.197Z,1.00
2023-05-12T19:15:50.059Z,99.90
2023-05-12T19:18:17.956Z,99.90
2023-05-12T19:20:45.728Z,99.90
2023-05-12T19:23:13.693Z,99.90
2023-05-12T19:25:42.919Z,1.00
2023-05-12T19:28:11.518Z,1.00
2023-05-12T19:30:39.409Z,1.00
2023-05-12T19:33:07.340Z,1.00
2023-05-12T19:35:35.526Z,1.00
2023-05-12T19:38:03.303Z,1.00
2023-05-12T19:40:31.977Z,1.00
2023-05-12T19:42:59.846Z,1.00
2023-05-12T19:45:28.385Z,1.00
2023-05-12T19:47:57.274Z,1.00
2023-05-12T19:50:25.259Z,1.00
2023-05-12T19:52:53.090Z,1.00
2023-05-12T19:55:21.280Z,1.00
2023-05-12T19:57:49.380Z,1.00
2023-05-12T20:00:18.826Z,1.00
2023-05-12T20:02:46.659Z,1.00
2023-05-12T20:05:14.958Z,1.00
2023-05-12T20:07:42.855Z,4.50
2023-05-12T20:10:11.820Z,1.00
2023-05-12T20:12:39.672Z,1.00
2023-05-12T20:15:09.584Z,19.50
2023-05-12T20:17:37.506Z,24.10
2023-05-12T20:20:07.587Z,36.40
2023-05-12T20:22:35.411Z,1.00
2023-05-12T20:25:04.191Z,1.00
2023-05-12T20:27:32.541Z,1.00
2023-05-12T20:30:00.702Z,1.00
2023-05-12T20:32:28.437Z,1.00
2023-05-12T20:34:56.396Z,1.00
2023-05-12T20:37:24.379Z,1.00
2023-05-12T20:39:53.263Z,1.00
2023-05-12T20:42:21.115Z,1.00
2023-05-12T20:47:36.651Z,1.00
2023-05-12T20:50:06.618Z,1.00
2023-05-12T20:52:37.003Z,1.00
2023-05-12T20:55:07.036Z,1.00
2023-05-12T20:57:35.147Z,1.00
2023-05-12T21:00:03.583Z,1.00
2023-05-12T21:02:31.590Z,1.00
2023-05-12T21:04:59.530Z,1.00
2023-05-12T21:07:27.496Z,1.00
2023-05-12T21:09:55.353Z,1.00
2023-05-12T21:12:23.430Z,1.00
2023-05-12T21:14:51.422Z,1.00
2023-05-12T21:17:19.381Z,1.00
2023-05-12T21:19:47.410Z,1.00
2023-05-12T21:22:15.486Z,1.00
2023-05-12T21:24:43.602Z,1.00
2023-05-12T21:27:11.504Z,1.00
2023-05-12T21:29:39.424Z,1.00
2023-05-12T21:32:08.701Z,1.00
2023-05-12T21:34:36.735Z,1.00
2023-05-12T21:37:05.096Z,1.00
2023-05-12T21:39:32.990Z,1.00
2023-05-12T21:42:01.026Z,1.00
2023-05-12T21:44:29.202Z,1.00
2023-05-12T21:46:57.984Z,1.00
2023-05-12T21:49:26.161Z,1.00
2023-05-12T21:51:55.839Z,1.00
2023-05-12T21:54:23.646Z,1.00
2023-05-12T21:56:51.925Z,1.00
2023-05-12T21:59:19.968Z,1.00
2023-05-12T22:01:47.758Z,1.00
2023-05-12T22:04:15.910Z,1.00
2023-05-12T22:06:43.774Z,1.00
2023-05-12T22:09:11.721Z,1.00
2023-05-12T22:11:39.661Z,1.00
2023-05-12T22:14:07.805Z,1.00
2023-05-12T22:16:41.722Z,1.00
2023-05-12T22:19:10.606Z,1.00
2023-05-12T22:21:38.741Z,1.00
2023-05-12T22:26:57.221Z,1.00
2023-05-12T22:29:25.536Z,1.00
2023-05-12T22:31:53.447Z,1.00
2023-05-12T22:34:21.237Z,1.00
2023-05-12T22:36:48.927Z,1.00
2023-05-12T22:39:17.019Z,1.00
2023-05-12T22:41:44.796Z,1.00
2023-05-12T22:44:12.517Z,1.00
2023-05-12T22:46:40.305Z,1.00
2023-05-12T22:49:07.990Z,1.00
2023-05-12T22:51:35.734Z,1.00
2023-05-12T22:54:03.612Z,1.00
2023-05-12T22:56:31.308Z,1.00
2023-05-12T22:58:59.003Z,1.00
2023-05-12T23:01:26.731Z,1.00
2023-05-12T23:03:54.691Z,1.00
2023-05-12T23:06:22.725Z,1.00
2023-05-12T23:08:50.448Z,1.00
2023-05-12T23:11:18.280Z,1.00
2023-05-12T23:13:46.977Z,1.00
2023-05-12T23:16:14.838Z,1.00
2023-05-12T23:18:42.701Z,1.00
2023-05-12T23:21:10.574Z,1.00
2023-05-12T23:23:38.284Z,1.00
2023-05-12T23:26:06.231Z,1.00
2023-05-12T23:28:33.920Z,1.00
2023-05-12T23:31:02.619Z,1.00
2023-05-12T23:33:31.080Z,1.00
2023-05-12T23:35:58.912Z,1.00
2023-05-12T23:38:26.584Z,1.00
2023-05-12T23:40:54.314Z,1.00
2023-05-12T23:43:22.049Z,1.00
2023-05-12T23:45:49.982Z,1.00
2023-05-12T23:48:17.668Z,1.00
2023-05-12T23:50:45.369Z,14.90
2023-05-12T23:53:13.052Z,5.90
2023-05-12T23:55:40.823Z,9.00
2023-05-12T23:58:10.058Z,5.90
